Berezovo, Russia
Current Conditions -  °F | °C
As of 5:30 AM on Tuesday 27 Jan 2015 (Local Time) from USHH Reporting Station
Overcast Overcast  
Wind Chill:   Ceiling: 8000
Heat Index: 14°   Visibility: 6mi
Dew Point: 10°   Wind: 7mph
Humidity: 86%   Direction: 260°W
Pressure: 29.94"   Gusts: NA
Location:  63.93°N, 65.05°E
Report Text: USHH 270030Z 26003MPS 9999 SCT029CB OVC080 M10/M12 Q1014 TEMPO1500 SHSN BKN005 RMK QFE757 24////37
Loading
Personal Weather Stations






























Interactive Weather Map New forecast layout! Learn more

10-Day Weather Forecast

Advertisements
Track Severe Weather on mobile